F/V Marial — FHVA — position and weather

sailwx.info

Track history (hours):
 
Tides and Currents Weather Stations Pressure Air Temp Water Temp Dewpoint Dewpoint Depression Visibility Wind Speed Wind Dir Waves Ship Positions

F/V Marial

Last reported at 2017-Sep-26 17:50 UTC. Time now 2017-Sep-26 18:30 UTC.
Position N 46°44' W 002°21'.

Length 20 m; draft 3.4 m.

Type: Fishing. MMSI: 227563000.

Date/timePositionNaut miles runAvg speedWind from/ knotsBaromVisibWave heightAir tempDewpointWater temp
2017-Sep-26 17:50N 46°44' W 002°21'0 0.0
2017-Sep-26 17:21N 46°44' W 002°21'0 0.0
2017-Sep-26 16:43N 46°44' W 002°21'0 0.0
2017-Sep-26 16:30N 46°44' W 002°21'0 0.0
2017-Sep-26 15:56N 46°44' W 002°21'0 0.0
2017-Sep-26 15:27N 46°44' W 002°21'0 0.0
2017-Sep-26 15:00N 46°44' W 002°21'0 0.0
2017-Sep-26 14:30N 46°44' W 002°21'0 0.0
2017-Sep-26 13:57N 46°44' W 002°21'0 0.0
2017-Sep-26 13:22N 46°44' W 002°21'0 0.0
2017-Sep-26 13:00N 46°44' W 002°21'0 0.0
2017-Sep-26 11:44N 46°44' W 002°21'0 0.0
2017-Sep-26 11:25N 46°44' W 002°21'0 0.0
2017-Sep-26 11:00N 46°44' W 002°21'0 0.0
2017-Sep-26 10:04N 46°44' W 002°21'0 0.0
2017-Sep-26 09:38N 46°44' W 002°21'0 0.0
2017-Sep-26 08:19N 46°44' W 002°21'0 0.0
2017-Sep-26 07:12N 46°44' W 002°21'0 0.0
2017-Sep-26 06:58N 46°44' W 002°21'0 0.0
2017-Sep-26 05:13N 46°44' W 002°21'0 0.0
2017-Sep-25 19:00N 46°44' W 002°21'6 0.6
2017-Sep-25 09:03N 46°41' W 002°13'1 9.9
2017-Sep-25 08:58N 46°40' W 002°12'510.0
2017-Sep-25 08:30N 46°37' W 002°07'510.1
2017-Sep-25 08:00N 46°34' W 002°01'510.2
2017-Sep-25 07:30N 46°31' W 001°55'5 9.9
2017-Sep-25 07:00N 46°29' W 001°49'2 3.6
2017-Sep-25 06:30N 46°30' W 001°47'0 0.0
2017-Sep-25 06:00N 46°30' W 001°47'0 0.0
2017-Sep-25 05:30N 46°30' W 001°47'0 0.0
2017-Sep-25 05:00N 46°30' W 001°47'0 0.0
2017-Sep-25 04:30N 46°30' W 001°47'0 0.1
2017-Sep-25 04:00N 46°30' W 001°47'0 0.3
2017-Sep-25 03:30N 46°30' W 001°47'0 0.0
2017-Sep-25 03:00N 46°30' W 001°48'1 1.2
2017-Sep-25 02:30N 46°29' W 001°47'4 7.2
2017-Sep-25 02:00N 46°26' W 001°48'4 8.5
2017-Sep-25 01:30N 46°22' W 001°50'4 8.4
2017-Sep-25 01:00N 46°18' W 001°52'4 8.2
2017-Sep-25 00:30N 46°14' W 001°53'4 8.1
2017-Sep-25 00:00N 46°10' W 001°55'6 7.8
2017-Sep-24 23:13N 46°04' W 001°57'3 7.8
2017-Sep-24 22:52N 46°01' W 001°58'3 7.9
2017-Sep-24 22:28N 45°58' W 001°59'7 6.0
2017-Sep-24 21:15N 45°51' W 002°02'2 5.7
2017-Sep-24 20:59N 45°50' W 002°03'3 5.8
2017-Sep-24 20:27N 45°47' W 002°04'3 6.0
2017-Sep-24 20:00N 45°44' W 002°05'3 6.1
2017-Sep-24 19:30N 45°41' W 002°06'4 6.3
2017-Sep-24 18:55N 45°37' W 002°07'3 6.4
2017-Sep-24 18:30N 45°35' W 002°08'3 6.4
2017-Sep-24 18:01N 45°32' W 002°10'3 6.4
2017-Sep-24 17:30N 45°29' W 002°11'3 6.4
2017-Sep-24 17:00N 45°26' W 002°12'3 6.6
2017-Sep-24 16:30N 45°22' W 002°13'3 6.9
2017-Sep-24 16:00N 45°19' W 002°15'8 7.2
2017-Sep-24 14:50N 45°11' W 002°18'3 7.3
2017-Sep-24 14:25N 45°08' W 002°20'3 7.2
2017-Sep-24 14:01N 45°05' W 002°21'0 0.7
2017-Sep-24 13:30N 45°05' W 002°21'0 0.6
2017-Sep-24 13:00N 45°05' W 002°22'0 0.6
2017-Sep-24 12:31N 45°05' W 002°22'1 1.4
2017-Sep-24 12:00N 45°05' W 002°23'2 3.9
2017-Sep-24 11:31N 45°05' W 002°26'2 3.9
2017-Sep-24 11:00N 45°06' W 002°28'2 3.0
2017-Sep-24 10:30N 45°07' W 002°30'1 2.1
2017-Sep-24 10:00N 45°07' W 002°31'1 0.9
2017-Sep-24 09:25N 45°08' W 002°31'0 0.2
2017-Sep-24 09:00N 45°08' W 002°31'0 0.2
2017-Sep-24 08:16N 45°08' W 002°31'0 0.3
2017-Sep-24 08:00N 45°08' W 002°31'0 0.4
2017-Sep-24 07:30N 45°08' W 002°31'0 0.4
2017-Sep-24 06:59N 45°08' W 002°31'0 0.5
2017-Sep-24 06:30N 45°09' W 002°31'0 0.6
2017-Sep-24 06:00N 45°09' W 002°31'0 0.6
2017-Sep-24 05:30N 45°09' W 002°31'0 0.7
2017-Sep-24 05:00N 45°09' W 002°31'0 0.8
2017-Sep-24 04:30N 45°10' W 002°32'0 0.7
2017-Sep-24 04:01N 45°10' W 002°32'0 0.8
2017-Sep-24 03:30N 45°10' W 002°33'0 0.8
2017-Sep-24 03:00N 45°10' W 002°33'0 0.9
2017-Sep-24 02:30N 45°10' W 002°34'0 0.9
2017-Sep-24 02:01N 45°10' W 002°35'0 0.9
2017-Sep-24 01:30N 45°10' W 002°35'0 0.8
2017-Sep-24 01:00N 45°10' W 002°36'0 0.7
2017-Sep-24 00:31N 45°09' W 002°36'  
2017-Sep-21 19:12N 44°50' W 001°44'2 7.6
2017-Sep-21 18:57N 44°49' W 001°42'3 5.5
2017-Sep-21 18:30N 44°47' W 001°39'5 6.7
2017-Sep-21 17:42N 44°42' W 001°40'2 6.8
2017-Sep-21 17:28N 44°40' W 001°40'7 6.6
2017-Sep-21 16:24N 44°35' W 001°46'21 6.9
2017-Sep-21 13:21N 44°19' W 002°06'3 7.0
2017-Sep-21 12:54N 44°17' W 002°09'3 7.3
2017-Sep-21 12:30N 44°15' W 002°12'4 7.3
2017-Sep-21 11:59N 44°12' W 002°15'14 2.7
2017-Sep-21 06:49N 43°60' W 002°23'0 0.6
2017-Sep-21 06:30N 43°60' W 002°23'0 0.2
2017-Sep-21 06:00N 43°60' W 002°23'0 0.3
2017-Sep-21 05:30N 43°60' W 002°23'3 0.4
2017-Sep-20 22:10N 44°02' W 002°20'1 4.3
2017-Sep-20 21:58N 44°02' W 002°20'2 4.5
2017-Sep-20 21:30N 44°05' W 002°20'34 7.1
2017-Sep-20 16:44N 44°36' W 002°36'  
2017-Sep-18 12:05N 46°14' W 001°53'1 9.4
2017-Sep-18 11:57N 46°15' W 001°52'4 9.1
2017-Sep-18 11:30N 46°19' W 001°51'4 8.8
2017-Sep-18 11:00N 46°23' W 001°49'4 8.9
2017-Sep-18 10:30N 46°27' W 001°48'2 4.9
2017-Sep-18 10:00N 46°30' W 001°47'0 0.0
2017-Sep-18 09:30N 46°30' W 001°47'0 0.0
2017-Sep-18 09:00N 46°30' W 001°47'0 0.0
2017-Sep-18 08:30N 46°30' W 001°47'0 0.0
2017-Sep-18 08:00N 46°30' W 001°47'0 0.0
2017-Sep-18 07:30N 46°30' W 001°47'0 0.0
2017-Sep-18 07:00N 46°30' W 001°47'0 0.0
2017-Sep-18 06:30N 46°30' W 001°47'0 0.0
2017-Sep-18 06:00N 46°30' W 001°47'0 0.4
2017-Sep-18 05:30N 46°30' W 001°47'0 0.4
2017-Sep-18 05:00N 46°30' W 001°48'3 6.2
2017-Sep-18 04:30N 46°29' W 001°52'5 9.9
2017-Sep-18 04:00N 46°33' W 001°58'510.1
2017-Sep-18 03:30N 46°36' W 002°03'510.2
2017-Sep-18 03:00N 46°39' W 002°09'710.4
2017-Sep-18 02:23N 46°43' W 002°17'  
Track history (hours):
 
Tides and Currents Weather Stations Pressure Air Temp Water Temp Dewpoint Dewpoint Depression Visibility Wind Speed Wind Dir Waves Ship Positions

F/V Marial

Last reported at 2017-Sep-26 17:50 UTC. Time now 2017-Sep-26 18:30 UTC.
Position N 46°44' W 002°21'.

Length 20 m; draft 3.4 m.

Type: Fishing. MMSI: 227563000.

Date/timePositionNaut miles runAvg speedWind from/ knotsBaromVisibWave heightAir tempDewpointWater temp
2017-Sep-26 17:50N 46°44' W 002°21'0 0.0
2017-Sep-26 17:21N 46°44' W 002°21'0 0.0
2017-Sep-26 16:43N 46°44' W 002°21'0 0.0
2017-Sep-26 16:30N 46°44' W 002°21'0 0.0
2017-Sep-26 15:56N 46°44' W 002°21'0 0.0
2017-Sep-26 15:27N 46°44' W 002°21'0 0.0
2017-Sep-26 15:00N 46°44' W 002°21'0 0.0
2017-Sep-26 14:30N 46°44' W 002°21'0 0.0
2017-Sep-26 13:57N 46°44' W 002°21'0 0.0
2017-Sep-26 13:22N 46°44' W 002°21'0 0.0
2017-Sep-26 13:00N 46°44' W 002°21'0 0.0
2017-Sep-26 11:44N 46°44' W 002°21'0 0.0
2017-Sep-26 11:25N 46°44' W 002°21'0 0.0
2017-Sep-26 11:00N 46°44' W 002°21'0 0.0
2017-Sep-26 10:04N 46°44' W 002°21'0 0.0
2017-Sep-26 09:38N 46°44' W 002°21'0 0.0
2017-Sep-26 08:19N 46°44' W 002°21'0 0.0
2017-Sep-26 07:12N 46°44' W 002°21'0 0.0
2017-Sep-26 06:58N 46°44' W 002°21'0 0.0
2017-Sep-26 05:13N 46°44' W 002°21'0 0.0
2017-Sep-25 19:00N 46°44' W 002°21'6 0.6
2017-Sep-25 09:03N 46°41' W 002°13'1 9.9
2017-Sep-25 08:58N 46°40' W 002°12'510.0
2017-Sep-25 08:30N 46°37' W 002°07'510.1
2017-Sep-25 08:00N 46°34' W 002°01'510.2
2017-Sep-25 07:30N 46°31' W 001°55'5 9.9
2017-Sep-25 07:00N 46°29' W 001°49'2 3.6
2017-Sep-25 06:30N 46°30' W 001°47'0 0.0
2017-Sep-25 06:00N 46°30' W 001°47'0 0.0
2017-Sep-25 05:30N 46°30' W 001°47'0 0.0
2017-Sep-25 05:00N 46°30' W 001°47'0 0.0
2017-Sep-25 04:30N 46°30' W 001°47'0 0.1
2017-Sep-25 04:00N 46°30' W 001°47'0 0.3
2017-Sep-25 03:30N 46°30' W 001°47'0 0.0
2017-Sep-25 03:00N 46°30' W 001°48'1 1.2
2017-Sep-25 02:30N 46°29' W 001°47'4 7.2
2017-Sep-25 02:00N 46°26' W 001°48'4 8.5
2017-Sep-25 01:30N 46°22' W 001°50'4 8.4
2017-Sep-25 01:00N 46°18' W 001°52'4 8.2
2017-Sep-25 00:30N 46°14' W 001°53'4 8.1
2017-Sep-25 00:00N 46°10' W 001°55'6 7.8
2017-Sep-24 23:13N 46°04' W 001°57'3 7.8
2017-Sep-24 22:52N 46°01' W 001°58'3 7.9
2017-Sep-24 22:28N 45°58' W 001°59'7 6.0
2017-Sep-24 21:15N 45°51' W 002°02'2 5.7
2017-Sep-24 20:59N 45°50' W 002°03'3 5.8
2017-Sep-24 20:27N 45°47' W 002°04'3 6.0
2017-Sep-24 20:00N 45°44' W 002°05'3 6.1
2017-Sep-24 19:30N 45°41' W 002°06'4 6.3
2017-Sep-24 18:55N 45°37' W 002°07'3 6.4
2017-Sep-24 18:30N 45°35' W 002°08'3 6.4
2017-Sep-24 18:01N 45°32' W 002°10'3 6.4
2017-Sep-24 17:30N 45°29' W 002°11'3 6.4
2017-Sep-24 17:00N 45°26' W 002°12'3 6.6
2017-Sep-24 16:30N 45°22' W 002°13'3 6.9
2017-Sep-24 16:00N 45°19' W 002°15'8 7.2
2017-Sep-24 14:50N 45°11' W 002°18'3 7.3
2017-Sep-24 14:25N 45°08' W 002°20'3 7.2
2017-Sep-24 14:01N 45°05' W 002°21'0 0.7
2017-Sep-24 13:30N 45°05' W 002°21'0 0.6
2017-Sep-24 13:00N 45°05' W 002°22'0 0.6
2017-Sep-24 12:31N 45°05' W 002°22'1 1.4
2017-Sep-24 12:00N 45°05' W 002°23'2 3.9
2017-Sep-24 11:31N 45°05' W 002°26'2 3.9
2017-Sep-24 11:00N 45°06' W 002°28'2 3.0
2017-Sep-24 10:30N 45°07' W 002°30'1 2.1
2017-Sep-24 10:00N 45°07' W 002°31'1 0.9
2017-Sep-24 09:25N 45°08' W 002°31'0 0.2
2017-Sep-24 09:00N 45°08' W 002°31'0 0.2
2017-Sep-24 08:16N 45°08' W 002°31'0 0.3
2017-Sep-24 08:00N 45°08' W 002°31'0 0.4
2017-Sep-24 07:30N 45°08' W 002°31'0 0.4
2017-Sep-24 06:59N 45°08' W 002°31'0 0.5
2017-Sep-24 06:30N 45°09' W 002°31'0 0.6
2017-Sep-24 06:00N 45°09' W 002°31'0 0.6
2017-Sep-24 05:30N 45°09' W 002°31'0 0.7
2017-Sep-24 05:00N 45°09' W 002°31'0 0.8
2017-Sep-24 04:30N 45°10' W 002°32'0 0.7
2017-Sep-24 04:01N 45°10' W 002°32'0 0.8
2017-Sep-24 03:30N 45°10' W 002°33'0 0.8
2017-Sep-24 03:00N 45°10' W 002°33'0 0.9
2017-Sep-24 02:30N 45°10' W 002°34'0 0.9
2017-Sep-24 02:01N 45°10' W 002°35'0 0.9
2017-Sep-24 01:30N 45°10' W 002°35'0 0.8
2017-Sep-24 01:00N 45°10' W 002°36'0 0.7
2017-Sep-24 00:31N 45°09' W 002°36'  
2017-Sep-21 19:12N 44°50' W 001°44'2 7.6
2017-Sep-21 18:57N 44°49' W 001°42'3 5.5
2017-Sep-21 18:30N 44°47' W 001°39'5 6.7
2017-Sep-21 17:42N 44°42' W 001°40'2 6.8
2017-Sep-21 17:28N 44°40' W 001°40'7 6.6
2017-Sep-21 16:24N 44°35' W 001°46'21 6.9
2017-Sep-21 13:21N 44°19' W 002°06'3 7.0
2017-Sep-21 12:54N 44°17' W 002°09'3 7.3
2017-Sep-21 12:30N 44°15' W 002°12'4 7.3
2017-Sep-21 11:59N 44°12' W 002°15'14 2.7
2017-Sep-21 06:49N 43°60' W 002°23'0 0.6
2017-Sep-21 06:30N 43°60' W 002°23'0 0.2
2017-Sep-21 06:00N 43°60' W 002°23'0 0.3
2017-Sep-21 05:30N 43°60' W 002°23'3 0.4
2017-Sep-20 22:10N 44°02' W 002°20'1 4.3
2017-Sep-20 21:58N 44°02' W 002°20'2 4.5
2017-Sep-20 21:30N 44°05' W 002°20'34 7.1
2017-Sep-20 16:44N 44°36' W 002°36'  
2017-Sep-18 12:05N 46°14' W 001°53'1 9.4
2017-Sep-18 11:57N 46°15' W 001°52'4 9.1
2017-Sep-18 11:30N 46°19' W 001°51'4 8.8
2017-Sep-18 11:00N 46°23' W 001°49'4 8.9
2017-Sep-18 10:30N 46°27' W 001°48'2 4.9
2017-Sep-18 10:00N 46°30' W 001°47'0 0.0
2017-Sep-18 09:30N 46°30' W 001°47'0 0.0
2017-Sep-18 09:00N 46°30' W 001°47'0 0.0
2017-Sep-18 08:30N 46°30' W 001°47'0 0.0
2017-Sep-18 08:00N 46°30' W 001°47'0 0.0
2017-Sep-18 07:30N 46°30' W 001°47'0 0.0
2017-Sep-18 07:00N 46°30' W 001°47'0 0.0
2017-Sep-18 06:30N 46°30' W 001°47'0 0.0
2017-Sep-18 06:00N 46°30' W 001°47'0 0.4
2017-Sep-18 05:30N 46°30' W 001°47'0 0.4
2017-Sep-18 05:00N 46°30' W 001°48'3 6.2
2017-Sep-18 04:30N 46°29' W 001°52'5 9.9
2017-Sep-18 04:00N 46°33' W 001°58'510.1
2017-Sep-18 03:30N 46°36' W 002°03'510.2
2017-Sep-18 03:00N 46°39' W 002°09'710.4
2017-Sep-18 02:23N 46°43' W 002°17'  

Dump ship's entire track history